Time;durP1;ratioP1;P1;durP2;ratioP2;P2;SDS_P1;SDS_P2;PMS_P1;PMS_P2;Temp;Humidity;BMP_temperature;BMP_pressure;BME280_temperature;BME280_humidity;BME280_pressure;Samples;Min_cycle;Max_cycle;Signal;HPM_P1;HPM_P2
2022/08/02 00:02:54;;;;;;;3.40;2.15;;;15.80;99.90;;;;;;21128804;28;20053;-59
2022/08/02 00:12:57;;;;;;;3.90;2.80;;;15.70;99.90;;;;;;21123882;28;20454;-56
2022/08/02 00:22:59;;;;;;;4.45;3.00;;;15.60;99.90;;;;;;21142913;28;20044;-59
2022/08/02 00:33:04;;;;;;;4.68;2.28;;;15.70;99.90;;;;;;21125678;28;20052;-56
2022/08/02 00:43:09;;;;;;;5.40;2.20;;;15.70;99.90;;;;;;21103185;28;20039;-56
2022/08/02 00:53:11;;;;;;;6.75;2.28;;;15.80;99.90;;;;;;21116312;28;20040;-57
2022/08/02 01:03:13;;;;;;;4.60;2.15;;;16.00;99.90;;;;;;21118200;28;20493;-57
2022/08/02 01:13:16;;;;;;;6.45;2.45;;;16.20;99.90;;;;;;21117122;28;20061;-59
2022/08/02 01:23:46;;;;;;;3.22;2.40;;;16.40;99.90;;;;;;21120273;28;20031;-55
2022/08/02 01:34:01;;;;;;;3.15;2.05;;;16.50;99.90;;;;;;21119054;28;20051;-57
2022/08/02 01:44:05;;;;;;;2.78;1.83;;;16.70;99.90;;;;;;21112118;28;20073;-57
2022/08/02 01:54:11;;;;;;;4.75;2.05;;;16.90;99.90;;;;;;21116344;28;20054;-57
2022/08/02 02:04:15;;;;;;;4.82;2.20;;;17.00;99.90;;;;;;21112208;28;20039;-58
2022/08/02 02:14:19;;;;;;;5.47;2.95;;;17.40;99.90;;;;;;21117531;28;20104;-59
2022/08/02 02:24:22;;;;;;;4.25;2.45;;;17.70;99.90;;;;;;21108261;28;20040;-57
2022/08/02 02:34:45;;;;;;;4.32;2.58;;;17.60;99.90;;;;;;21118931;28;20051;-59
2022/08/02 02:44:50;;;;;;;4.93;2.20;;;17.50;99.90;;;;;;21103051;28;20399;-57
2022/08/02 02:54:54;;;;;;;1.98;1.48;;;17.20;99.90;;;;;;21116405;28;20039;-57
2022/08/02 03:05:01;;;;;;;3.20;2.35;;;17.20;99.90;;;;;;21132675;28;20047;-60
2022/08/02 03:15:06;;;;;;;4.25;2.88;;;17.40;99.90;;;;;;21122249;28;20392;-57
2022/08/02 03:25:10;;;;;;;7.07;2.95;;;17.60;99.90;;;;;;21128034;28;20496;-57
2022/08/02 03:35:15;;;;;;;3.72;3.00;;;17.40;99.90;;;;;;21120499;28;20124;-57
2022/08/02 03:45:19;;;;;;;4.25;3.08;;;17.30;99.90;;;;;;21123605;28;20088;-57
2022/08/02 03:55:21;;;;;;;3.88;3.10;;;16.90;99.90;;;;;;21126711;28;20031;-57
2022/08/02 04:05:24;;;;;;;3.72;2.20;;;16.40;99.90;;;;;;21116250;28;20036;-57
2022/08/02 04:15:26;;;;;;;5.10;2.47;;;16.20;99.90;;;;;;21128200;28;20036;-59
2022/08/02 04:25:31;;;;;;;12.75;4.20;;;14.90;99.90;;;;;;21120410;28;20442;-57
2022/08/02 04:35:34;;;;;;;7.00;2.47;;;13.70;99.90;;;;;;21123268;28;20074;-54
2022/08/02 04:45:37;;;;;;;7.25;2.03;;;12.60;99.90;;;;;;21122881;28;20040;-50
2022/08/02 04:55:39;;;;;;;3.38;1.42;;;12.00;99.90;;;;;;21114835;28;20032;-51
2022/08/02 05:05:42;;;;;;;4.68;1.40;;;12.10;99.90;;;;;;21124724;28;20131;-51
2022/08/02 05:15:48;;;;;;;1.05;0.90;;;12.30;99.90;;;;;;21116368;28;20035;-51
2022/08/02 05:25:51;;;;;;;2.03;1.15;;;;;;;;;;21121782;28;20035;-54
2022/08/02 05:35:55;;;;;;;6.00;0.70;;;12.80;99.90;;;;;;21117362;28;20382;-52
2022/08/02 05:45:57;;;;;;;0.52;0.43;;;12.90;99.90;;;;;;21114646;28;20191;-53
2022/08/02 05:56:28;;;;;;;2.00;0.47;;;13.90;99.90;;;;;;21122739;28;20044;-49
2022/08/02 06:06:32;;;;;;;;;;;13.70;99.90;;;;;;21101523;28;20396;-52
2022/08/02 06:16:35;;;;;;;1.02;0.60;;;13.70;99.90;;;;;;21120059;28;20318;-52
2022/08/02 06:26:38;;;;;;;4.80;1.00;;;13.10;99.90;;;;;;21114627;28;20036;-53
2022/08/02 06:36:59;;;;;;;1.35;0.82;;;12.90;99.90;;;;;;21122866;28;20454;-53
2022/08/02 06:47:01;;;;;;;0.95;0.57;;;12.80;99.90;;;;;;21131153;28;20032;-53
2022/08/02 06:57:04;;;;;;;0.50;0.50;;;12.80;99.90;;;;;;21143782;28;20051;-54
2022/08/02 07:07:07;;;;;;;0.93;0.65;;;13.00;99.90;;;;;;21133886;28;20036;-53
2022/08/02 07:17:11;;;;;;;0.60;0.40;;;13.30;99.90;;;;;;21125485;28;20073;-58
2022/08/02 07:27:13;;;;;;;0.30;0.30;;;15.20;99.90;;;;;;21127409;28;20035;-59
2022/08/02 07:37:15;;;;;;;0.30;0.30;;;16.90;99.90;;;;;;21124640;28;20484;-61
2022/08/02 07:47:18;;;;;;;0.70;0.50;;;17.10;99.90;;;;;;21115095;28;20031;-62
2022/08/02 07:57:21;;;;;;;0.77;0.57;;;18.50;99.90;;;;;;21121871;28;20392;-63
2022/08/02 08:07:24;;;;;;;0.73;0.50;;;19.30;99.90;;;;;;21125713;28;20035;-64
2022/08/02 08:17:26;;;;;;;1.35;0.50;;;19.90;99.90;;;;;;21118451;28;20123;-63
2022/08/02 08:27:28;;;;;;;0.75;0.40;;;20.70;99.90;;;;;;21110661;28;20085;-63
2022/08/02 08:37:35;;;;;;;0.68;0.40;;;21.70;99.90;;;;;;21115154;28;20126;-63
2022/08/02 08:47:39;;;;;;;0.45;0.45;;;22.20;97.70;;;;;;21123504;28;20044;-63
2022/08/02 08:57:43;;;;;;;0.70;0.30;;;22.40;97.90;;;;;;21116677;28;20470;-63
2022/08/02 09:07:51;;;;;;;0.70;0.60;;;23.30;94.90;;;;;;21117557;28;20525;-62
2022/08/02 09:17:54;;;;;;;0.60;0.60;;;24.80;99.90;;;;;;21121481;28;20518;-62
2022/08/02 09:27:56;;;;;;;0.55;0.40;;;25.90;94.60;;;;;;21116512;28;20057;-62
2022/08/02 09:38:09;;;;;;;2.40;0.82;;;26.30;91.20;;;;;;21108837;28;20458;-62
2022/08/02 09:48:12;;;;;;;1.02;0.80;;;27.10;95.00;;;;;;21108383;28;20032;-61
2022/08/02 09:58:19;;;;;;;0.80;0.80;;;27.40;93.30;;;;;;21110531;28;20119;-62
2022/08/02 10:08:21;;;;;;;2.22;0.73;;;27.50;92.80;;;;;;21093266;28;20036;-64
2022/08/02 10:18:24;;;;;;;0.68;0.68;;;27.20;90.30;;;;;;21109449;28;20087;-63
2022/08/02 10:28:30;;;;;;;1.15;0.70;;;27.00;91.20;;;;;;21117633;28;20036;-61
2022/08/02 10:38:34;;;;;;;1.77;0.60;;;26.90;89.70;;;;;;21108717;28;20496;-62
2022/08/02 10:49:22;;;;;;;0.80;0.80;;;27.20;88.10;;;;;;21093582;28;20032;-62
2022/08/02 10:59:26;;;;;;;1.73;1.00;;;28.30;88.60;;;;;;21109498;28;20498;-62
2022/08/02 11:09:31;;;;;;;2.25;0.90;;;28.90;83.20;;;;;;21101292;28;20023;-61
2022/08/02 11:19:35;;;;;;;0.82;0.82;;;29.20;79.70;;;;;;21127203;28;20040;-61
2022/08/02 11:29:42;;;;;;;0.70;0.70;;;29.00;78.50;;;;;;21122675;28;20425;-61
2022/08/02 11:39:51;;;;;;;0.90;0.60;;;28.50;78.40;;;;;;21051352;28;20048;-61
2022/08/02 11:50:07;;;;;;;2.53;0.90;;;28.40;77.20;;;;;;21051865;28;20032;-61
2022/08/02 12:00:15;;;;;;;;;;;28.40;80.90;;;;;;21048933;28;20078;-62
2022/08/02 12:10:20;;;;;;;2.08;0.77;;;28.60;78.30;;;;;;21054472;28;20426;-60
2022/08/02 12:20:35;;;;;;;3.58;0.85;;;28.30;79.80;;;;;;21035666;28;20036;-60
2022/08/02 12:30:50;;;;;;;0.95;0.80;;;28.50;79.20;;;;;;21047339;28;20048;-60
2022/08/02 12:40:53;;;;;;;1.42;1.00;;;28.60;75.50;;;;;;21108143;28;20081;-60
2022/08/02 12:50:55;;;;;;;0.85;0.85;;;28.30;80.80;;;;;;21087721;28;20084;-60
2022/08/02 13:01:00;;;;;;;0.98;0.80;;;28.30;77.80;;;;;;21118756;28;20047;-59
2022/08/02 13:11:02;;;;;;;0.65;0.65;;;28.50;80.50;;;;;;21092829;28;20040;-59
2022/08/02 13:21:06;;;;;;;0.70;0.70;;;28.40;74.70;;;;;;21092898;28;20092;-60
2022/08/02 13:31:08;;;;;;;2.15;0.70;;;28.30;76.60;;;;;;21012278;28;20081;-59
2022/08/02 13:41:12;;;;;;;0.98;0.70;;;28.40;75.60;;;;;;21004652;28;20063;-59
2022/08/02 13:51:15;;;;;;;0.98;0.90;;;28.60;74.90;;;;;;20993074;28;20457;-59
2022/08/02 14:01:18;;;;;;;1.98;0.90;;;28.90;76.40;;;;;;21052842;28;20089;-59
2022/08/02 14:11:21;;;;;;;1.00;0.88;;;29.10;72.30;;;;;;21051447;28;20443;-59
2022/08/02 14:21:23;;;;;;;1.00;0.90;;;28.90;74.40;;;;;;21041238;28;20028;-58
2022/08/02 14:31:26;;;;;;;0.63;0.63;;;29.10;72.00;;;;;;21029071;28;20087;-59
2022/08/02 14:41:28;;;;;;;0.93;0.88;;;29.00;73.20;;;;;;21014278;28;20040;-59
2022/08/02 14:51:31;;;;;;;1.23;0.98;;;29.20;71.80;;;;;;21052715;28;20056;-59
2022/08/02 15:01:35;;;;;;;1.00;0.90;;;29.40;71.50;;;;;;21058540;28;20032;-60
2022/08/02 15:11:37;;;;;;;2.97;0.95;;;29.50;71.90;;;;;;21001906;28;20057;-59
2022/08/02 15:21:40;;;;;;;1.42;1.10;;;29.50;71.80;;;;;;21065088;28;20032;-59
2022/08/02 15:31:43;;;;;;;2.55;1.48;;;30.10;71.10;;;;;;21021855;28;20117;-63
2022/08/02 15:41:45;;;;;;;1.10;1.00;;;30.70;67.90;;;;;;21011990;28;20160;-59
2022/08/02 15:51:48;;;;;;;2.33;1.20;;;30.80;68.30;;;;;;21063905;28;20036;-59
2022/08/02 16:01:51;;;;;;;1.20;1.00;;;30.80;67.30;;;;;;21030543;28;20028;-59
2022/08/02 16:11:53;;;;;;;1.23;1.10;;;30.20;68.30;;;;;;20993453;28;20028;-59
2022/08/02 16:21:56;;;;;;;2.55;1.20;;;29.30;69.90;;;;;;21060484;28;20028;-59
2022/08/02 16:31:58;;;;;;;1.23;0.90;;;27.50;71.30;;;;;;21059344;28;20052;-57
2022/08/02 16:42:00;;;;;;;2.08;1.00;;;24.70;77.50;;;;;;21058895;28;20465;-58
2022/08/02 16:52:03;;;;;;;1.27;0.90;;;22.70;84.60;;;;;;21057822;28;20481;-58
2022/08/02 17:02:07;;;;;;;1.90;1.10;;;21.20;90.30;;;;;;21069101;28;20980;-58
2022/08/02 17:12:09;;;;;;;1.30;1.00;;;20.10;93.00;;;;;;21139809;28;20073;-58
2022/08/02 17:22:12;;;;;;;2.67;1.45;;;19.40;94.20;;;;;;21138433;28;20392;-58
2022/08/02 17:32:14;;;;;;;1.27;1.17;;;18.90;95.50;;;;;;21138032;28;20450;-58
2022/08/02 17:42:17;;;;;;;2.17;1.50;;;18.40;98.10;;;;;;21137349;28;20040;-58
2022/08/02 17:52:22;;;;;;;1.70;1.58;;;18.00;99.90;;;;;;21136799;28;20036;-58
2022/08/02 18:02:26;;;;;;;1.80;1.58;;;17.50;99.90;;;;;;21121487;28;20036;-58
2022/08/02 18:12:28;;;;;;;1.65;1.55;;;17.40;99.90;;;;;;21052270;28;20089;-58
2022/08/02 18:22:31;;;;;;;2.40;1.60;;;17.10;99.90;;;;;;21051861;28;20036;-58
2022/08/02 18:32:34;;;;;;;2.00;1.77;;;16.90;99.90;;;;;;21064347;28;20480;-58
2022/08/02 18:42:37;;;;;;;3.72;1.58;;;16.60;99.90;;;;;;21068332;28;20437;-58
2022/08/02 18:52:40;;;;;;;2.00;1.90;;;16.40;99.90;;;;;;21067718;28;20040;-58
2022/08/02 19:02:43;;;;;;;2.10;1.60;;;16.20;99.90;;;;;;21054995;28;20550;-58
2022/08/02 19:12:46;;;;;;;3.28;1.92;;;16.00;99.90;;;;;;21065738;28;20032;-58
2022/08/02 19:22:49;;;;;;;2.10;1.90;;;15.90;99.90;;;;;;21064507;28;20092;-62
2022/08/02 19:32:51;;;;;;;3.30;2.20;;;15.80;99.90;;;;;;21067832;28;20043;-68
2022/08/02 19:42:55;;;;;;;2.85;2.15;;;15.70;99.90;;;;;;21146670;28;20380;-62
2022/08/02 19:52:58;;;;;;;2.38;2.17;;;15.60;99.90;;;;;;21143433;28;20109;-67
2022/08/02 20:03:01;;;;;;;3.13;2.00;;;15.50;99.90;;;;;;21062501;28;20085;-67
2022/08/02 20:13:04;;;;;;;2.10;1.92;;;15.40;99.90;;;;;;20994984;28;20032;-68
2022/08/02 20:23:17;;;;;;;2.40;2.00;;;15.50;99.90;;;;;;21052682;28;20092;-63
2022/08/02 20:33:22;;;;;;;2.30;2.10;;;15.40;99.90;;;;;;21057702;28;20048;-64
2022/08/02 20:43:25;;;;;;;1.90;1.80;;;15.30;99.90;;;;;;21059516;28;20116;-66
2022/08/02 20:53:28;;;;;;;2.70;2.05;;;15.30;99.90;;;;;;21139265;28;20035;-68
2022/08/02 21:03:31;;;;;;;2.85;2.03;;;15.30;99.90;;;;;;21036972;28;20057;-64
2022/08/02 21:13:34;;;;;;;2.10;1.88;;;15.60;99.90;;;;;;21027615;28;20028;-64
2022/08/02 21:23:37;;;;;;;3.40;2.20;;;15.60;99.90;;;;;;20970769;28;20414;-64
2022/08/02 21:33:39;;;;;;;2.20;1.80;;;15.60;99.90;;;;;;20987715;28;20052;-65
2022/08/02 21:43:41;;;;;;;2.05;1.85;;;15.50;99.90;;;;;;21035862;28;20044;-65
2022/08/02 21:53:46;;;;;;;5.43;2.33;;;15.40;99.90;;;;;;21051740;28;20055;-64
2022/08/02 22:03:49;;;;;;;2.25;2.00;;;15.40;99.90;;;;;;21024381;28;20094;-64
2022/08/02 22:13:52;;;;;;;2.42;1.80;;;15.40;99.90;;;;;;21116234;28;20461;-66
2022/08/02 22:23:54;;;;;;;2.25;1.50;;;15.60;99.90;;;;;;21006461;28;20539;-69
2022/08/02 22:34:05;;;;;;;2.13;1.40;;;15.80;99.90;;;;;;21046503;28;20443;-71
2022/08/02 22:44:08;;;;;;;1.40;1.02;;;15.90;99.90;;;;;;21050220;28;20036;-70
2022/08/02 22:54:13;;;;;;;1.10;1.00;;;15.80;99.90;;;;;;21016611;28;20562;-68
2022/08/02 23:04:16;;;;;;;1.50;0.90;;;15.70;99.90;;;;;;21094347;28;20032;-65
2022/08/02 23:14:18;;;;;;;1.30;0.80;;;15.70;99.90;;;;;;21053400;28;20439;-64
2022/08/02 23:24:22;;;;;;;0.75;0.65;;;15.80;99.90;;;;;;21047387;28;20061;-67
2022/08/02 23:34:25;;;;;;;0.80;0.80;;;15.90;99.90;;;;;;21063088;28;20069;-66
2022/08/02 23:44:28;;;;;;;0.93;0.70;;;15.90;99.90;;;;;;21062627;28;20036;-56
2022/08/02 23:54:38;;;;;;;0.68;0.60;;;16.20;99.90;;;;;;21061587;28;20425;-57
